Kincolith, Canada
Current Conditions -  °F | °C
As of 1:00 AM on Wednesday 28 Jan 2015 (Local Time) from CYPR Reporting Station
Scattered Clouds Scattered Clouds  
Wind Chill: 32°   Ceiling: Unl
Heat Index: 39°   Visibility: 9mi
Dew Point: 34°   Wind: 10mph
Humidity: 81%   Direction: 120°ESE
Pressure: 30.22"   Gusts: NA
Location:  55°N, 129.95°W
Report Text: CYPR 280900Z AUTO 12009KT 9SM SCT050 04/01 A3022 RMK SLP236
Loading
Personal Weather Stations






























Interactive Weather Map New forecast layout! Learn more

10-Day Weather Forecast

Advertisements
Track Severe Weather on mobile